Trimble, Tennessee
Current Conditions -  °F | °C
As of 9:55 AM on Saturday 22 Nov 2014 (Local Time) from KUCY Reporting Station
Broken Clouds Broken Clouds  
Wind Chill: 57°   Ceiling: 10000
Heat Index: 57°   Visibility: 10mi
Dew Point: 41°   Wind: 16mph
Humidity: 55%   Direction: 170°S
Pressure: 30.24"   Gusts: NA
Location:  36.2°N, 89.19°W
Report Text: KUCY 221555Z AUTO 17014KT 10SM BKN100 14/05 A3024 RMK
Loading
Personal Weather Stations






























Interactive Weather Map New forecast layout! Learn more

10-Day Weather Forecast

Advertisements
Track Severe Weather on mobile